^^
Saratoga-Weather Station Historical Data
Daily Summary for February 7, 2021 Units:  Both    English   Metric
Daily Weekly Monthly Yearly Custom
  High: Low: Average:
Temperature: 47.5 °F /  8.6 °C 39.4 °F /  4.1 °C 43.7 °F /  6.5 °C
Dew Point: 46.4 °F /  8 °C 37 °F /  2.8 °C 41.7 °F /  5.4 °C
Humidity: 96% 87% 93%
Wind Speed: 10.1mph /  16.3km/h - 2.4mph /  3.9km/h
Wind Gust: 14mph /  22.5km/h - -
Wind- - West
Pressure: 30.3 in /  1025.4 hPa 30.1 in /  1019.0 hPa -
Precipitation: 0.05 in /  1.3 mm    
Historical Graphs
 
 
Tabular Data for February 7, 2021
Time Temperature Dew Point Pressure Wind Wind Speed Wind Gust Humidity Rainfall Rate (Hourly) solar
00:01 40.1 °F /  4.5 °C 37.8 °F /  3.2 °C 30.3in /  1025.4hPa Calm   1mph /  1.6km/h 91% 0in /  0.0mm 0 W/m2
00:06 40.1 °F /  4.5 °C 37.8 °F /  3.2 °C 30.3in /  1025.4hPa Calm   5mph /  8km/h 91% 0in /  0.0mm 0 W/m2
00:11 40.1 °F /  4.5 °C 37.8 °F /  3.2 °C 30.3in /  1025.4hPa West 0.9mph /  1.4km/h 4mph /  6.4km/h 91% 0in /  0.0mm 0 W/m2
00:16 40.1 °F /  4.5 °C 37.8 °F /  3.2 °C 30.3in /  1025.1hPa NNW 2mph /  3.2km/h 3mph /  4.8km/h 91% 0in /  0.0mm 0 W/m2
00:21 40.1 °F /  4.5 °C 37.8 °F /  3.2 °C 30.3in /  1025.1hPa Calm   4mph /  6.4km/h 91% 0in /  0.0mm 0 W/m2
00:26 40.1 °F /  4.5 °C 37.8 °F /  3.2 °C 30.3in /  1025.1hPa Calm   1mph /  1.6km/h 91% 0in /  0.0mm 0 W/m2
00:31 39.9 °F /  4.4 °C 37.6 °F /  3.1 °C 30.3in /  1025.1hPa Calm   2mph /  3.2km/h 91% 0in /  0.0mm 0 W/m2
00:36 39.9 °F /  4.4 °C 37.6 °F /  3.1 °C 30.3in /  1025.1hPa Calm     91% 0in /  0.0mm 0 W/m2
00:41 39.9 °F /  4.4 °C 37.6 °F /  3.1 °C 30.3in /  1025.1hPa Calm   1mph /  1.6km/h 91% 0in /  0.0mm 0 W/m2
00:46 39.9 °F /  4.4 °C 37.6 °F /  3.1 °C 30.3in /  1025.1hPa North 0.9mph /  1.4km/h 2mph /  3.2km/h 91% 0in /  0.0mm 0 W/m2
00:51 39.9 °F /  4.4 °C 37.6 °F /  3.1 °C 30.3in /  1025.1hPa Calm   2mph /  3.2km/h 91% 0in /  0.0mm 0 W/m2
00:56 39.7 °F /  4.3 °C 37.4 °F /  3 °C 30.3in /  1024.7hPa Calm   2mph /  3.2km/h 91% 0in /  0.0mm 0 W/m2
01:01 39.7 °F /  4.3 °C 37.4 °F /  3 °C 30.3in /  1024.7hPa South 0.9mph /  1.4km/h 2mph /  3.2km/h 91% 0in /  0.0mm 0 W/m2
01:06 39.6 °F /  4.2 °C 37.2 °F /  2.9 °C 30.3in /  1024.7hPa Calm   2mph /  3.2km/h 91% 0in /  0.0mm 0 W/m2
01:11 39.6 °F /  4.2 °C 37.2 °F /  2.9 °C 30.3in /  1024.4hPa North 0.9mph /  1.4km/h 2mph /  3.2km/h 91% 0in /  0.0mm 0 W/m2
01:16 39.4 °F /  4.1 °C 37 °F /  2.8 °C 30.2in /  1024.0hPa SW 5mph /  8km/h 5mph /  8km/h 91% 0in /  0.0mm 0 W/m2
01:21 39.6 °F /  4.2 °C 37.4 °F /  3 °C 30.2in /  1024.0hPa Calm   2mph /  3.2km/h 92% 0in /  0.0mm 0 W/m2
01:26 39.6 °F /  4.2 °C 37.4 °F /  3 °C 30.3in /  1024.4hPa Calm   2mph /  3.2km/h 92% 0in /  0.0mm 0 W/m2
01:31 39.6 °F /  4.2 °C 37.4 °F /  3 °C 30.3in /  1024.4hPa Calm   2mph /  3.2km/h 92% 0in /  0.0mm 0 W/m2
01:36 39.7 °F /  4.3 °C 37.6 °F /  3.1 °C 30.2in /  1024.0hPa NW 4mph /  6.4km/h 5mph /  8km/h 92% 0in /  0.0mm 0 W/m2
01:41 39.9 °F /  4.4 °C 37.8 °F /  3.2 °C 30.2in /  1024.0hPa West 2.9mph /  4.7km/h 3mph /  4.8km/h 92% 0in /  0.0mm 0 W/m2
01:46 39.9 °F /  4.4 °C 37.8 °F /  3.2 °C 30.2in /  1024.0hPa NW 2.9mph /  4.7km/h 5mph /  8km/h 92% 0in /  0.0mm 0 W/m2
01:51 40.1 °F /  4.5 °C 37.9 °F /  3.3 °C 30.2in /  1023.7hPa WNW 0.9mph /  1.4km/h 2mph /  3.2km/h 92% 0in /  0.0mm 0 W/m2
01:56 40.1 °F /  4.5 °C 37.9 °F /  3.3 °C 30.2in /  1023.7hPa West 6mph /  9.7km/h 6mph /  9.7km/h 92% 0in /  0.0mm 0 W/m2
02:01 40.1 °F /  4.5 °C 37.9 °F /  3.3 °C 30.2in /  1023.7hPa West 2.9mph /  4.7km/h 3mph /  4.8km/h 92% 0in /  0.0mm 0 W/m2
02:06 40.3 °F /  4.6 °C 38.1 °F /  3.4 °C 30.2in /  1023.7hPa NW 2mph /  3.2km/h 4mph /  6.4km/h 92% 0in /  0.0mm 0 W/m2
02:11 40.5 °F /  4.7 °C 38.3 °F /  3.5 °C 30.2in /  1023.7hPa NW 2mph /  3.2km/h 2mph /  3.2km/h 92% 0in /  0.0mm 0 W/m2
02:16 40.5 °F /  4.7 °C 38.1 °F /  3.4 °C 30.2in /  1023.4hPa NW 2.9mph /  4.7km/h 3mph /  4.8km/h 91% 0in /  0.0mm 0 W/m2
02:21 40.5 °F /  4.7 °C 38.1 °F /  3.4 °C 30.2in /  1023.4hPa Calm   2mph /  3.2km/h 91% 0in /  0.0mm 0 W/m2
02:26 40.5 °F /  4.7 °C 38.3 °F /  3.5 °C 30.2in /  1023.4hPa NW 2.9mph /  4.7km/h 7mph /  11.3km/h 92% 0in /  0.0mm 0 W/m2
02:31 40.6 °F /  4.8 °C 38.5 °F /  3.6 °C 30.2in /  1023.4hPa West 0.9mph /  1.4km/h 5mph /  8km/h 92% 0in /  0.0mm 0 W/m2
02:36 40.6 °F /  4.8 °C 38.5 °F /  3.6 °C 30.2in /  1023.4hPa WNW 2mph /  3.2km/h 3mph /  4.8km/h 92% 0in /  0.0mm 0 W/m2
02:41 40.6 °F /  4.8 °C 38.5 °F /  3.6 °C 30.2in /  1023.7hPa North 0.9mph /  1.4km/h 2mph /  3.2km/h 92% 0in /  0.0mm 0 W/m2
02:46 40.8 °F /  4.9 °C 38.5 °F /  3.6 °C 30.2in /  1024.0hPa WNW 4mph /  6.4km/h 6mph /  9.7km/h 91% 0in /  0.0mm 0 W/m2
02:51 40.8 °F /  4.9 °C 38.5 °F /  3.6 °C 30.2in /  1024.0hPa WNW 2.9mph /  4.7km/h 4mph /  6.4km/h 91% 0in /  0.0mm 0 W/m2
02:56 40.8 °F /  4.9 °C 38.5 °F /  3.6 °C 30.2in /  1024.0hPa WNW 2mph /  3.2km/h 5mph /  8km/h 91% 0in /  0.0mm 0 W/m2
03:01 40.8 °F /  4.9 °C 38.5 °F /  3.6 °C 30.2in /  1023.7hPa West 2mph /  3.2km/h 2mph /  3.2km/h 91% 0in /  0.0mm 0 W/m2
03:06 40.8 °F /  4.9 °C 38.5 °F /  3.6 °C 30.2in /  1023.7hPa NNW 2mph /  3.2km/h 3mph /  4.8km/h 91% 0in /  0.0mm 0 W/m2
03:11 40.6 °F /  4.8 °C 38.3 °F /  3.5 °C 30.2in /  1023.4hPa NNW 2.9mph /  4.7km/h 4mph /  6.4km/h 91% 0in /  0.0mm 0 W/m2
03:16 40.6 °F /  4.8 °C 38.3 °F /  3.5 °C 30.2in /  1023.4hPa WNW 2.9mph /  4.7km/h 3mph /  4.8km/h 91% 0in /  0.0mm 0 W/m2
03:21 40.6 °F /  4.8 °C 38.3 °F /  3.5 °C 30.2in /  1023.4hPa Calm   1mph /  1.6km/h 91% 0in /  0.0mm 0 W/m2
03:26 40.5 °F /  4.7 °C 38.1 °F /  3.4 °C 30.2in /  1023.4hPa NE 2mph /  3.2km/h 2mph /  3.2km/h 91% 0in /  0.0mm 0 W/m2
03:31 40.5 °F /  4.7 °C 38.3 °F /  3.5 °C 30.2in /  1023.4hPa NW 0.9mph /  1.4km/h 3mph /  4.8km/h 92% 0in /  0.0mm 0 W/m2
03:36 40.5 °F /  4.7 °C 38.1 °F /  3.4 °C 30.2in /  1023.4hPa NNW 2mph /  3.2km/h 3mph /  4.8km/h 91% 0in /  0.0mm 0 W/m2
03:41 40.5 °F /  4.7 °C 38.3 °F /  3.5 °C 30.2in /  1023.0hPa Calm   1mph /  1.6km/h 92% 0in /  0.0mm 0 W/m2
03:46 40.5 °F /  4.7 °C 38.3 °F /  3.5 °C 30.2in /  1023.0hPa Calm   1mph /  1.6km/h 92% 0in /  0.0mm 0 W/m2
03:51 40.5 °F /  4.7 °C 38.3 °F /  3.5 °C 30.2in /  1023.0hPa Calm   1mph /  1.6km/h 92% 0in /  0.0mm 0 W/m2
03:56 40.5 °F /  4.7 °C 38.3 °F /  3.5 °C 30.2in /  1023.0hPa North 2mph /  3.2km/h 2mph /  3.2km/h 92% 0in /  0.0mm 0 W/m2
04:01 40.5 °F /  4.7 °C 38.3 °F /  3.5 °C 30.2in /  1023.0hPa NW 2mph /  3.2km/h 2mph /  3.2km/h 92% 0in /  0.0mm 0 W/m2
04:06 40.6 °F /  4.8 °C 38.5 °F /  3.6 °C 30.2in /  1023.0hPa NE 0.9mph /  1.4km/h 3mph /  4.8km/h 92% 0in /  0.0mm 0 W/m2
04:11 40.6 °F /  4.8 °C 38.5 °F /  3.6 °C 30.2in /  1023.0hPa Calm   3mph /  4.8km/h 92% 0in /  0.0mm 0 W/m2
04:16 40.6 °F /  4.8 °C 38.5 °F /  3.6 °C 30.2in /  1023.0hPa Calm     92% 0in /  0.0mm 0 W/m2
04:21 40.6 °F /  4.8 °C 38.5 °F /  3.6 °C 30.2in /  1023.0hPa Calm   2mph /  3.2km/h 92% 0in /  0.0mm 0 W/m2
04:26 40.8 °F /  4.9 °C 38.7 °F /  3.7 °C 30.2in /  1022.7hPa Calm   1mph /  1.6km/h 92% 0in /  0.0mm 0 W/m2
04:31 40.8 °F /  4.9 °C 38.7 °F /  3.7 °C 30.2in /  1022.7hPa Calm   1mph /  1.6km/h 92% 0in /  0.0mm 0 W/m2
04:36 40.6 °F /  4.8 °C 38.5 °F /  3.6 °C 30.2in /  1022.4hPa NE 0.9mph /  1.4km/h 3mph /  4.8km/h 92% 0in /  0.0mm 0 W/m2
04:41 40.6 °F /  4.8 °C 38.5 °F /  3.6 °C 30.2in /  1022.4hPa SW 0.9mph /  1.4km/h 2mph /  3.2km/h 92% 0in /  0.0mm 0 W/m2
04:46 40.8 °F /  4.9 °C 38.7 °F /  3.7 °C 30.2in /  1022.4hPa West 0.9mph /  1.4km/h 3mph /  4.8km/h 92% 0in /  0.0mm 0 W/m2
04:51 40.8 °F /  4.9 °C 38.7 °F /  3.7 °C 30.2in /  1022.7hPa WNW 2mph /  3.2km/h 2mph /  3.2km/h 92% 0in /  0.0mm 0 W/m2
04:56 40.8 °F /  4.9 °C 38.7 °F /  3.7 °C 30.2in /  1023.0hPa Calm   1mph /  1.6km/h 92% 0in /  0.0mm 0 W/m2
05:01 40.8 °F /  4.9 °C 38.7 °F /  3.7 °C 30.2in /  1022.7hPa East 2mph /  3.2km/h 3mph /  4.8km/h 92% 0in /  0.0mm 0 W/m2
05:06 40.8 °F /  4.9 °C 38.7 °F /  3.7 °C 30.2in /  1022.4hPa Calm   3mph /  4.8km/h 92% 0in /  0.0mm 0 W/m2
05:11 41 °F /  5 °C 38.8 °F /  3.8 °C 30.2in /  1022.4hPa West 4mph /  6.4km/h 4mph /  6.4km/h 92% 0in /  0.0mm 0 W/m2
05:16 41 °F /  5 °C 38.8 °F /  3.8 °C 30.2in /  1022.4hPa ENE 2mph /  3.2km/h 4mph /  6.4km/h 92% 0in /  0.0mm 0 W/m2
05:21 41.2 °F /  5.1 °C 39 °F /  3.9 °C 30.2in /  1022.4hPa West 0.9mph /  1.4km/h 5mph /  8km/h 92% 0in /  0.0mm 0 W/m2
05:26 41.2 °F /  5.1 °C 39 °F /  3.9 °C 30.2in /  1022.4hPa NNW 2.9mph /  4.7km/h 6mph /  9.7km/h 92% 0in /  0.0mm 0 W/m2
05:31 41.4 °F /  5.2 °C 39.2 °F /  4 °C 30.2in /  1022.4hPa Calm   4mph /  6.4km/h 92% 0in /  0.0mm 0 W/m2
05:36 41.4 °F /  5.2 °C 39.2 °F /  4 °C 30.2in /  1022.0hPa ENE 0.9mph /  1.4km/h 6mph /  9.7km/h 92% 0in /  0.0mm 0 W/m2
05:41 41.4 °F /  5.2 °C 39.2 °F /  4 °C 30.2in /  1022.0hPa Calm   5mph /  8km/h 92% 0in /  0.0mm 0 W/m2
05:46 41.5 °F /  5.3 °C 39.4 °F /  4.1 °C 30.2in /  1022.0hPa East 0.9mph /  1.4km/h 4mph /  6.4km/h 92% 0in /  0.0mm 0 W/m2
05:52 41.5 °F /  5.3 °C 39.4 °F /  4.1 °C 30.2in /  1022.0hPa WNW 2mph /  3.2km/h 9mph /  14.5km/h 92% 0in /  0.0mm 0 W/m2
05:57 41.5 °F /  5.3 °C 39.4 °F /  4.1 °C 30.2in /  1022.0hPa Calm   2mph /  3.2km/h 92% 0in /  0.0mm 0 W/m2
06:02 41.5 °F /  5.3 °C 39.4 °F /  4.1 °C 30.2in /  1021.7hPa NW 0.9mph /  1.4km/h 9mph /  14.5km/h 92% 0in /  0.0mm 0 W/m2
06:07 41.7 °F /  5.4 °C 39.6 °F /  4.2 °C 30.2in /  1021.7hPa NE 2mph /  3.2km/h 2mph /  3.2km/h 92% 0in /  0.0mm 0 W/m2
06:12 41.7 °F /  5.4 °C 39.6 °F /  4.2 °C 30.2in /  1021.3hPa SW 4mph /  6.4km/h 7mph /  11.3km/h 92% 0in /  0.0mm 0 W/m2
06:17 41.7 °F /  5.4 °C 39.6 °F /  4.2 °C 30.2in /  1021.3hPa SE 0.9mph /  1.4km/h 2mph /  3.2km/h 92% 0in /  0.0mm 0 W/m2
06:22 41.7 °F /  5.4 °C 39.6 °F /  4.2 °C 30.2in /  1021.3hPa North 2mph /  3.2km/h 3mph /  4.8km/h 92% 0in /  0.0mm 0 W/m2
06:27 41.7 °F /  5.4 °C 39.6 °F /  4.2 °C 30.2in /  1021.3hPa SW 2mph /  3.2km/h 13mph /  20.9km/h 92% 0in /  0.0mm 0 W/m2
06:32 41.7 °F /  5.4 °C 39.6 °F /  4.2 °C 30.2in /  1021.0hPa NNW 2.9mph /  4.7km/h 3mph /  4.8km/h 92% 0in /  0.0mm 0 W/m2
06:37 41.7 °F /  5.4 °C 39.6 °F /  4.2 °C 30.2in /  1021.3hPa WNW 6.9mph /  11.1km/h 13mph /  20.9km/h 92% 0in /  0.0mm 0 W/m2
06:42 41.9 °F /  5.5 °C 39.7 °F /  4.3 °C 30.2in /  1021.0hPa ENE 6mph /  9.7km/h 7mph /  11.3km/h 92% 0in /  0.0mm 0 W/m2
06:47 41.9 °F /  5.5 °C 39.7 °F /  4.3 °C 30.1in /  1020.7hPa WSW 0.9mph /  1.4km/h 2mph /  3.2km/h 92% 0in /  0.0mm 0 W/m2
06:52 41.9 °F /  5.5 °C 40.1 °F /  4.5 °C 30.2in /  1021.0hPa NE 2mph /  3.2km/h 5mph /  8km/h 93% 0in /  0.0mm 0 W/m2
06:57 41.9 °F /  5.5 °C 40.1 °F /  4.5 °C 30.1in /  1020.7hPa WNW 2.9mph /  4.7km/h 5mph /  8km/h 93% 0in /  0.0mm 0 W/m2
07:02 42.1 °F /  5.6 °C 40.3 °F /  4.6 °C 30.1in /  1020.7hPa NW 10.1mph /  16.3km/h 10mph /  16.1km/h 93% 0in /  0.0mm 0 W/m2
07:07 42.1 °F /  5.6 °C 40.3 °F /  4.6 °C 30.1in /  1020.7hPa NNW 4mph /  6.4km/h 5mph /  8km/h 93% 0in /  0.0mm 0 W/m2
07:12 42.1 °F /  5.6 °C 40.3 °F /  4.6 °C 30.1in /  1020.7hPa NW 10mph /  16.1km/h 10mph /  16.1km/h 93% 0in /  0.0mm 0 W/m2
07:17 42.1 °F /  5.6 °C 40.3 °F /  4.6 °C 30.1in /  1020.7hPa WNW 2mph /  3.2km/h 4mph /  6.4km/h 93% 0in /  0.0mm 0 W/m2
07:22 42.1 °F /  5.6 °C 40.3 °F /  4.6 °C 30.1in /  1020.7hPa West 4mph /  6.4km/h 9mph /  14.5km/h 93% 0in /  0.0mm 0 W/m2
07:27 42.1 °F /  5.6 °C 40.3 °F /  4.6 °C 30.1in /  1020.7hPa NW 2.9mph /  4.7km/h 4mph /  6.4km/h 93% 0in /  0.0mm 0 W/m2
07:32 42.1 °F /  5.6 °C 40.3 °F /  4.6 °C 30.1in /  1020.7hPa West 4mph /  6.4km/h 9mph /  14.5km/h 93% 0in /  0.0mm 0 W/m2
07:37 42.1 °F /  5.6 °C 40.3 °F /  4.6 °C 30.1in /  1020.7hPa NNW 0.9mph /  1.4km/h 2mph /  3.2km/h 93% 0in /  0.0mm 0 W/m2
07:42 42.1 °F /  5.6 °C 40.3 °F /  4.6 °C 30.1in /  1020.3hPa West 0.9mph /  1.4km/h 5mph /  8km/h 93% 0in /  0.0mm 5 W/m2
07:47 42.1 °F /  5.6 °C 40.3 °F /  4.6 °C 30.1in /  1020.7hPa NNW 0.9mph /  1.4km/h 5mph /  8km/h 93% 0in /  0.0mm 7 W/m2
07:52 42.1 °F /  5.6 °C 40.5 °F /  4.7 °C 30.1in /  1020.7hPa NW 0.9mph /  1.4km/h 3mph /  4.8km/h 94% 0in /  0.0mm 11 W/m2
07:57 42.1 °F /  5.6 °C 40.5 °F /  4.7 °C 30.1in /  1020.7hPa NW 2mph /  3.2km/h 4mph /  6.4km/h 94% 0in /  0.0mm 14 W/m2
08:02 42.1 °F /  5.6 °C 40.5 °F /  4.7 °C 30.1in /  1020.7hPa NNE 4.9mph /  7.9km/h 9mph /  14.5km/h 94% 0in /  0.0mm 18 W/m2
08:07 42.1 °F /  5.6 °C 40.5 °F /  4.7 °C 30.1in /  1020.7hPa WNW 0.9mph /  1.4km/h 3mph /  4.8km/h 94% 0in /  0.0mm 19 W/m2
08:12 42.1 °F /  5.6 °C 40.5 °F /  4.7 °C 30.1in /  1020.7hPa NW 9mph /  14.5km/h 9mph /  14.5km/h 94% 0in /  0.0mm 18 W/m2
08:17 42.3 °F /  5.7 °C 40.6 °F /  4.8 °C 30.1in /  1020.7hPa SW 0.9mph /  1.4km/h 4mph /  6.4km/h 94% 0in /  0.0mm 16 W/m2
08:22 42.3 °F /  5.7 °C 40.6 °F /  4.8 °C 30.1in /  1020.7hPa NW 4.9mph /  7.9km/h 7mph /  11.3km/h 94% 0in /  0.0mm 21 W/m2
08:27 42.3 °F /  5.7 °C 40.6 °F /  4.8 °C 30.1in /  1020.7hPa NW 0.9mph /  1.4km/h 6mph /  9.7km/h 94% 0in /  0.0mm 21 W/m2
08:32 42.3 °F /  5.7 °C 40.6 °F /  4.8 °C 30.1in /  1020.7hPa NW 0.9mph /  1.4km/h 2mph /  3.2km/h 94% 0in /  0.0mm 23 W/m2
08:37 42.4 °F /  5.8 °C 40.8 °F /  4.9 °C 30.1in /  1020.7hPa NW 0.9mph /  1.4km/h 5mph /  8km/h 94% 0in /  0.0mm 19 W/m2
08:42 42.4 °F /  5.8 °C 41.2 °F /  5.1 °C 30.1in /  1020.7hPa NNW 0.9mph /  1.4km/h 3mph /  4.8km/h 95% 0in /  0.0mm 18 W/m2
08:47 42.4 °F /  5.8 °C 41.2 °F /  5.1 °C 30.1in /  1020.7hPa Calm   4mph /  6.4km/h 95% 0.01in /  0.2mm 21 W/m2
08:52 42.4 °F /  5.8 °C 41.2 °F /  5.1 °C 30.1in /  1020.7hPa NNW 0.9mph /  1.4km/h 4mph /  6.4km/h 95% 0.01in /  0.2mm 14 W/m2
08:57 42.4 °F /  5.8 °C 41.2 °F /  5.1 °C 30.1in /  1020.7hPa Calm   3mph /  4.8km/h 95% 0.01in /  0.2mm 21 W/m2
09:02 42.4 °F /  5.8 °C 41.2 °F /  5.1 °C 30.1in /  1020.7hPa NE 2mph /  3.2km/h 3mph /  4.8km/h 95% 0.01in /  0.2mm 19 W/m2
09:07 42.4 °F /  5.8 °C 41.2 °F /  5.1 °C 30.1in /  1020.7hPa Calm   2mph /  3.2km/h 95% 0.01in /  0.2mm 26 W/m2
09:12 42.4 °F /  5.8 °C 41.2 °F /  5.1 °C 30.1in /  1020.7hPa NE 0.9mph /  1.4km/h 3mph /  4.8km/h 95% 0.01in /  0.2mm 35 W/m2
09:17 42.6 °F /  5.9 °C 41.4 °F /  5.2 °C 30.1in /  1020.7hPa Calm   2mph /  3.2km/h 95% 0.01in /  0.2mm 28 W/m2
09:22 42.6 °F /  5.9 °C 41.4 °F /  5.2 °C 30.1in /  1020.7hPa North 0.9mph /  1.4km/h 3mph /  4.8km/h 95% 0.01in /  0.2mm 25 W/m2
09:27 42.6 °F /  5.9 °C 41.4 °F /  5.2 °C 30.1in /  1020.7hPa North 2mph /  3.2km/h 2mph /  3.2km/h 95% 0.02in /  0.5mm 35 W/m2
09:32 42.8 °F /  6 °C 41.5 °F /  5.3 °C 30.1in /  1020.7hPa WNW 2.9mph /  4.7km/h 3mph /  4.8km/h 95% 0.02in /  0.5mm 51 W/m2
09:37 43 °F /  6.1 °C 41.7 °F /  5.4 °C 30.1in /  1020.7hPa Calm   1mph /  1.6km/h 95% 0.02in /  0.5mm 72 W/m2
09:42 43 °F /  6.1 °C 41.7 °F /  5.4 °C 30.1in /  1020.7hPa Calm   1mph /  1.6km/h 95% 0.02in /  0.5mm 84 W/m2
09:47 43.2 °F /  6.2 °C 41.9 °F /  5.5 °C 30.1in /  1020.7hPa NW 2mph /  3.2km/h 2mph /  3.2km/h 95% 0.02in /  0.5mm 47 W/m2
09:52 43.3 °F /  6.3 °C 42.1 °F /  5.6 °C 30.1in /  1020.7hPa NW 2.9mph /  4.7km/h 4mph /  6.4km/h 95% 0.02in /  0.5mm 39 W/m2
09:57 43.3 °F /  6.3 °C 42.3 °F /  5.7 °C 30.1in /  1020.7hPa NW 2.9mph /  4.7km/h 4mph /  6.4km/h 96% 0.02in /  0.5mm 63 W/m2
10:02 43.5 °F /  6.4 °C 42.4 °F /  5.8 °C 30.1in /  1020.3hPa NNW 2.9mph /  4.7km/h 3mph /  4.8km/h 96% 0.02in /  0.5mm 113 W/m2
10:07 43.9 °F /  6.6 °C 42.6 °F /  5.9 °C 30.1in /  1020.0hPa East 0.9mph /  1.4km/h 2mph /  3.2km/h 95% 0.03in /  0.8mm 125 W/m2
10:12 44.1 °F /  6.7 °C 42.8 °F /  6 °C 30.1in /  1020.0hPa West 0.9mph /  1.4km/h 4mph /  6.4km/h 95% 0.03in /  0.8mm 214 W/m2
10:17 44.2 °F /  6.8 °C 43.2 °F /  6.2 °C 30.1in /  1019.6hPa Calm   4mph /  6.4km/h 96% 0.03in /  0.8mm 53 W/m2
10:22 44.2 °F /  6.8 °C 43 °F /  6.1 °C 30.1in /  1020.0hPa West 2mph /  3.2km/h 9mph /  14.5km/h 95% 0.03in /  0.8mm 93 W/m2
10:27 44.4 °F /  6.9 °C 43.2 °F /  6.2 °C 30.1in /  1020.3hPa Calm   3mph /  4.8km/h 95% 0.02in /  0.5mm 58 W/m2
10:32 44.4 °F /  6.9 °C 43.2 °F /  6.2 °C 30.1in /  1020.3hPa WNW 0.9mph /  1.4km/h 4mph /  6.4km/h 95% 0.02in /  0.5mm 74 W/m2
10:37 44.4 °F /  6.9 °C 43.2 °F /  6.2 °C 30.1in /  1020.0hPa NW 2mph /  3.2km/h 4mph /  6.4km/h 95% 0.02in /  0.5mm 125 W/m2
10:42 44.6 °F /  7 °C 43.3 °F /  6.3 °C 30.1in /  1020.3hPa NNE 2.9mph /  4.7km/h 10mph /  16.1km/h 95% 0.02in /  0.5mm 130 W/m2
10:47 44.8 °F /  7.1 °C 43.5 °F /  6.4 °C 30.1in /  1020.3hPa WNW 0.9mph /  1.4km/h 4mph /  6.4km/h 95% 0.01in /  0.2mm 120 W/m2
10:52 45 °F /  7.2 °C 43.7 °F /  6.5 °C 30.1in /  1020.3hPa WNW 2mph /  3.2km/h 10mph /  16.1km/h 95% 0.01in /  0.2mm 97 W/m2
10:57 45 °F /  7.2 °C 43.7 °F /  6.5 °C 30.1in /  1020.3hPa NNW 2mph /  3.2km/h 9mph /  14.5km/h 95% 0.01in /  0.2mm 56 W/m2
11:02 45 °F /  7.2 °C 43.7 °F /  6.5 °C 30.1in /  1020.3hPa NW 2mph /  3.2km/h 8mph /  12.9km/h 95% 0.01in /  0.2mm 51 W/m2
11:07 44.8 °F /  7.1 °C 43.5 °F /  6.4 °C 30.1in /  1020.3hPa West 4mph /  6.4km/h 10mph /  16.1km/h 95% 0in /  0.0mm 47 W/m2
11:12 44.8 °F /  7.1 °C 43.5 °F /  6.4 °C 30.1in /  1020.7hPa NE 2.9mph /  4.7km/h 4mph /  6.4km/h 95% 0in /  0.0mm 53 W/m2
11:17 44.8 °F /  7.1 °C 43.5 °F /  6.4 °C 30.1in /  1020.7hPa Calm   9mph /  14.5km/h 95% 0in /  0.0mm 54 W/m2
11:22 45 °F /  7.2 °C 43.7 °F /  6.5 °C 30.1in /  1020.3hPa NW 2mph /  3.2km/h 7mph /  11.3km/h 95% 0in /  0.0mm 49 W/m2
11:27 44.8 °F /  7.1 °C 43.5 °F /  6.4 °C 30.1in /  1020.0hPa NW 2mph /  3.2km/h 7mph /  11.3km/h 95% 0in /  0.0mm 58 W/m2
11:32 44.8 °F /  7.1 °C 43.5 °F /  6.4 °C 30.1in /  1020.3hPa North 2mph /  3.2km/h 6mph /  9.7km/h 95% 0in /  0.0mm 53 W/m2
11:37 45 °F /  7.2 °C 43.7 °F /  6.5 °C 30.1in /  1020.3hPa West 6mph /  9.7km/h 8mph /  12.9km/h 95% 0in /  0.0mm 69 W/m2
11:42 45 °F /  7.2 °C 43.7 °F /  6.5 °C 30.1in /  1020.3hPa WNW 2.9mph /  4.7km/h 9mph /  14.5km/h 95% 0in /  0.0mm 70 W/m2
11:47 45 °F /  7.2 °C 43.7 °F /  6.5 °C 30.1in /  1020.0hPa West 2.9mph /  4.7km/h 8mph /  12.9km/h 95% 0in /  0.0mm 70 W/m2
11:52 45 °F /  7.2 °C 43.7 °F /  6.5 °C 30.1in /  1020.0hPa NNW 4mph /  6.4km/h 5mph /  8km/h 95% 0in /  0.0mm 91 W/m2
11:57 45 °F /  7.2 °C 43.7 °F /  6.5 °C 30.1in /  1020.0hPa West 2.9mph /  4.7km/h 5mph /  8km/h 95% 0in /  0.0mm 88 W/m2
12:02 45 °F /  7.2 °C 43.7 °F /  6.5 °C 30.1in /  1020.0hPa WNW 2mph /  3.2km/h 9mph /  14.5km/h 95% 0in /  0.0mm 65 W/m2
12:07 45.1 °F /  7.3 °C 43.9 °F /  6.6 °C 30.1in /  1020.0hPa SSW 0.9mph /  1.4km/h 2mph /  3.2km/h 95% 0in /  0.0mm 49 W/m2
12:12 45.1 °F /  7.3 °C 43.9 °F /  6.6 °C 30.1in /  1020.0hPa WNW 6.9mph /  11.1km/h 10mph /  16.1km/h 95% 0.01in /  0.2mm 49 W/m2
12:17 45.1 °F /  7.3 °C 43.9 °F /  6.6 °C 30.1in /  1020.3hPa WNW 2.9mph /  4.7km/h 4mph /  6.4km/h 95% 0.01in /  0.2mm 42 W/m2
12:22 45.1 °F /  7.3 °C 43.9 °F /  6.6 °C 30.1in /  1020.0hPa West 2.9mph /  4.7km/h 10mph /  16.1km/h 95% 0.01in /  0.2mm 67 W/m2
12:27 45.3 °F /  7.4 °C 44.1 °F /  6.7 °C 30.1in /  1020.0hPa NNW 4mph /  6.4km/h 6mph /  9.7km/h 95% 0.01in /  0.2mm 67 W/m2
12:32 45.3 °F /  7.4 °C 44.1 °F /  6.7 °C 30.1in /  1019.6hPa West 4mph /  6.4km/h 14mph /  22.5km/h 95% 0.01in /  0.2mm 70 W/m2
12:37 45.3 °F /  7.4 °C 44.1 °F /  6.7 °C 30.1in /  1019.6hPa West 6mph /  9.7km/h 12mph /  19.3km/h 95% 0.01in /  0.2mm 70 W/m2
12:42 45.5 °F /  7.5 °C 44.2 °F /  6.8 °C 30.1in /  1019.3hPa North 2.9mph /  4.7km/h 4mph /  6.4km/h 95% 0.01in /  0.2mm 72 W/m2
12:47 45.5 °F /  7.5 °C 44.2 °F /  6.8 °C 30.1in /  1019.3hPa WNW 4mph /  6.4km/h 5mph /  8km/h 95% 0.01in /  0.2mm 77 W/m2
12:52 45.7 °F /  7.6 °C 44.4 °F /  6.9 °C 30.1in /  1019.3hPa Calm   10mph /  16.1km/h 95% 0.01in /  0.2mm 63 W/m2
12:57 45.7 °F /  7.6 °C 44.4 °F /  6.9 °C 30.1in /  1019.6hPa West 2mph /  3.2km/h 4mph /  6.4km/h 95% 0.01in /  0.2mm 69 W/m2
13:02 45.9 °F /  7.7 °C 44.4 °F /  6.9 °C 30.1in /  1019.3hPa NNW 2mph /  3.2km/h 5mph /  8km/h 95% 0.01in /  0.2mm 91 W/m2
13:07 45.9 °F /  7.7 °C 44.4 °F /  6.9 °C 30.1in /  1019.3hPa West 0.9mph /  1.4km/h 6mph /  9.7km/h 95% 0.01in /  0.2mm 79 W/m2
13:12 45.9 °F /  7.7 °C 44.4 °F /  6.9 °C 30.1in /  1019.6hPa SW 4.9mph /  7.9km/h 11mph /  17.7km/h 95% 0in /  0.0mm 105 W/m2
13:17 45.9 °F /  7.7 °C 44.4 °F /  6.9 °C 30.1in /  1019.3hPa NW 0.9mph /  1.4km/h 3mph /  4.8km/h 95% 0in /  0.0mm 77 W/m2
13:22 46 °F /  7.8 °C 44.6 °F /  7 °C 30.1in /  1019.3hPa WNW 0.9mph /  1.4km/h 6mph /  9.7km/h 95% 0in /  0.0mm 81 W/m2
13:27 46 °F /  7.8 °C 44.6 °F /  7 °C 30.1in /  1019.3hPa West 2.9mph /  4.7km/h 5mph /  8km/h 95% 0in /  0.0mm 63 W/m2
13:32 46 °F /  7.8 °C 44.6 °F /  7 °C 30.1in /  1019.3hPa NW 2mph /  3.2km/h 6mph /  9.7km/h 95% 0in /  0.0mm 53 W/m2
13:37 46 °F /  7.8 °C 44.6 °F /  7 °C 30.1in /  1019.3hPa NW 4mph /  6.4km/h 5mph /  8km/h 95% 0in /  0.0mm 54 W/m2
13:42 46 °F /  7.8 °C 44.6 °F /  7 °C 30.1in /  1019.0hPa NW 2mph /  3.2km/h 7mph /  11.3km/h 95% 0in /  0.0mm 60 W/m2
13:47 46 °F /  7.8 °C 44.6 °F /  7 °C 30.1in /  1019.3hPa NW 2.9mph /  4.7km/h 7mph /  11.3km/h 95% 0in /  0.0mm 47 W/m2
13:52 46 °F /  7.8 °C 44.6 °F /  7 °C 30.1in /  1019.3hPa West 4mph /  6.4km/h 6mph /  9.7km/h 95% 0in /  0.0mm 46 W/m2
13:57 46 °F /  7.8 °C 44.6 °F /  7 °C 30.1in /  1019.0hPa West 2mph /  3.2km/h 8mph /  12.9km/h 95% 0in /  0.0mm 39 W/m2
14:02 46 °F /  7.8 °C 44.6 °F /  7 °C 30.1in /  1019.0hPa West 4mph /  6.4km/h 5mph /  8km/h 95% 0in /  0.0mm 40 W/m2
14:07 46 °F /  7.8 °C 44.6 °F /  7 °C 30.1in /  1019.0hPa WNW 4mph /  6.4km/h 8mph /  12.9km/h 95% 0in /  0.0mm 26 W/m2
14:12 46 °F /  7.8 °C 44.6 °F /  7 °C 30.1in /  1019.0hPa Calm   8mph /  12.9km/h 95% 0in /  0.0mm 18 W/m2
14:17 46.2 °F /  7.9 °C 44.8 °F /  7.1 °C 30.1in /  1019.0hPa WSW 0.9mph /  1.4km/h 2mph /  3.2km/h 95% 0in /  0.0mm 16 W/m2
14:22 46.2 °F /  7.9 °C 44.8 °F /  7.1 °C 30.1in /  1019.0hPa NNW 2.9mph /  4.7km/h 8mph /  12.9km/h 95% 0in /  0.0mm 19 W/m2
14:27 46.2 °F /  7.9 °C 44.8 °F /  7.1 °C 30.1in /  1019.0hPa WNW 0.9mph /  1.4km/h 2mph /  3.2km/h 95% 0in /  0.0mm 19 W/m2
14:32 46.2 °F /  7.9 °C 44.8 °F /  7.1 °C 30.1in /  1019.0hPa WNW 0.9mph /  1.4km/h 8mph /  12.9km/h 95% 0in /  0.0mm 21 W/m2
14:38 46.2 °F /  7.9 °C 44.8 °F /  7.1 °C 30.1in /  1019.0hPa West 2mph /  3.2km/h 5mph /  8km/h 95% 0in /  0.0mm 16 W/m2
14:43 46.4 °F /  8 °C 45 °F /  7.2 °C 30.1in /  1019.0hPa West 4mph /  6.4km/h 4mph /  6.4km/h 95% 0in /  0.0mm 23 W/m2
14:48 46.4 °F /  8 °C 45 °F /  7.2 °C 30.1in /  1019.0hPa WSW 2.9mph /  4.7km/h 3mph /  4.8km/h 95% 0in /  0.0mm 30 W/m2
14:53 46.4 °F /  8 °C 45 °F /  7.2 °C 30.1in /  1019.0hPa Calm   1mph /  1.6km/h 95% 0in /  0.0mm 33 W/m2
14:58 46.6 °F /  8.1 °C 45.1 °F /  7.3 °C 30.1in /  1019.0hPa WNW 2mph /  3.2km/h 3mph /  4.8km/h 95% 0in /  0.0mm 39 W/m2
15:03 46.6 °F /  8.1 °C 45.1 °F /  7.3 °C 30.1in /  1019.0hPa West 0.9mph /  1.4km/h 3mph /  4.8km/h 95% 0in /  0.0mm 47 W/m2
15:08 46.8 °F /  8.2 °C 45.3 °F /  7.4 °C 30.1in /  1019.0hPa Calm   4mph /  6.4km/h 95% 0in /  0.0mm 39 W/m2
15:13 46.8 °F /  8.2 °C 45.3 °F /  7.4 °C 30.1in /  1019.0hPa WNW 2mph /  3.2km/h 3mph /  4.8km/h 95% 0in /  0.0mm 32 W/m2
15:18 46.8 °F /  8.2 °C 45.3 °F /  7.4 °C 30.1in /  1019.0hPa Calm   3mph /  4.8km/h 95% 0in /  0.0mm 33 W/m2
15:23 46.8 °F /  8.2 °C 45.3 °F /  7.4 °C 30.1in /  1019.0hPa West 2mph /  3.2km/h 4mph /  6.4km/h 95% 0in /  0.0mm 26 W/m2
15:28 46.8 °F /  8.2 °C 45.3 °F /  7.4 °C 30.1in /  1019.0hPa West 2.9mph /  4.7km/h 3mph /  4.8km/h 95% 0in /  0.0mm 32 W/m2
15:33 46.9 °F /  8.3 °C 45.5 °F /  7.5 °C 30.1in /  1019.0hPa WNW 0.9mph /  1.4km/h 4mph /  6.4km/h 95% 0in /  0.0mm 26 W/m2
15:38 46.9 °F /  8.3 °C 45.5 °F /  7.5 °C 30.1in /  1019.0hPa Calm   2mph /  3.2km/h 95% 0in /  0.0mm 14 W/m2
15:43 46.9 °F /  8.3 °C 45.5 °F /  7.5 °C 30.1in /  1019.3hPa NW 0.9mph /  1.4km/h 4mph /  6.4km/h 95% 0in /  0.0mm 9 W/m2
15:48 46.9 °F /  8.3 °C 45.5 °F /  7.5 °C 30.1in /  1019.3hPa WNW 4.9mph /  7.9km/h 6mph /  9.7km/h 95% 0in /  0.0mm 7 W/m2
15:53 46.9 °F /  8.3 °C 45.5 °F /  7.5 °C 30.1in /  1019.3hPa WNW 2mph /  3.2km/h 2mph /  3.2km/h 95% 0in /  0.0mm 9 W/m2
15:58 46.9 °F /  8.3 °C 45.5 °F /  7.5 °C 30.1in /  1019.3hPa WSW 0.9mph /  1.4km/h 2mph /  3.2km/h 95% 0in /  0.0mm 7 W/m2
16:03 46.9 °F /  8.3 °C 45.5 °F /  7.5 °C 30.1in /  1019.3hPa Calm   4mph /  6.4km/h 95% 0in /  0.0mm 9 W/m2
16:08 46.9 °F /  8.3 °C 45.5 °F /  7.5 °C 30.1in /  1019.3hPa NW 0.9mph /  1.4km/h 2mph /  3.2km/h 95% 0in /  0.0mm 5 W/m2
16:13 46.9 °F /  8.3 °C 45.5 °F /  7.5 °C 30.1in /  1019.3hPa NNW 0.9mph /  1.4km/h 4mph /  6.4km/h 95% 0in /  0.0mm 14 W/m2
16:18 46.9 °F /  8.3 °C 45.5 °F /  7.5 °C 30.1in /  1019.3hPa WNW 4mph /  6.4km/h 4mph /  6.4km/h 95% 0in /  0.0mm 19 W/m2
16:23 46.9 °F /  8.3 °C 45.9 °F /  7.7 °C 30.1in /  1019.0hPa West 4mph /  6.4km/h 7mph /  11.3km/h 96% 0in /  0.0mm 26 W/m2
16:28 47.1 °F /  8.4 °C 46 °F /  7.8 °C 30.1in /  1019.0hPa West 2.9mph /  4.7km/h 5mph /  8km/h 96% 0in /  0.0mm 18 W/m2
16:33 47.1 °F /  8.4 °C 46 °F /  7.8 °C 30.1in /  1019.3hPa WNW 2.9mph /  4.7km/h 7mph /  11.3km/h 96% 0in /  0.0mm 14 W/m2
16:38 47.1 °F /  8.4 °C 46 °F /  7.8 °C 30.1in /  1019.0hPa SW 4.9mph /  7.9km/h 8mph /  12.9km/h 96% 0in /  0.0mm 12 W/m2
16:43 47.3 °F /  8.5 °C 46.2 °F /  7.9 °C 30.1in /  1019.0hPa SW 4mph /  6.4km/h 6mph /  9.7km/h 96% 0in /  0.0mm 11 W/m2
16:48 47.3 °F /  8.5 °C 46.2 °F /  7.9 °C 30.1in /  1019.0hPa West 2mph /  3.2km/h 5mph /  8km/h 96% 0in /  0.0mm 11 W/m2
16:53 47.5 °F /  8.6 °C 46.4 °F /  8 °C 30.1in /  1019.3hPa WNW 0.9mph /  1.4km/h 3mph /  4.8km/h 96% 0in /  0.0mm 7 W/m2
16:58 47.5 °F /  8.6 °C 46.4 °F /  8 °C 30.1in /  1019.3hPa West 6mph /  9.7km/h 7mph /  11.3km/h 96% 0in /  0.0mm 0 W/m2
17:03 47.5 °F /  8.6 °C 46 °F /  7.8 °C 30.1in /  1019.3hPa West 2.9mph /  4.7km/h 6mph /  9.7km/h 95% 0in /  0.0mm 0 W/m2
17:08 47.5 °F /  8.6 °C 46 °F /  7.8 °C 30.1in /  1019.3hPa West 2mph /  3.2km/h 7mph /  11.3km/h 95% 0in /  0.0mm 0 W/m2
17:13 47.5 °F /  8.6 °C 46 °F /  7.8 °C 30.1in /  1019.3hPa NW 4mph /  6.4km/h 7mph /  11.3km/h 95% 0in /  0.0mm 0 W/m2
17:18 47.5 °F /  8.6 °C 46 °F /  7.8 °C 30.1in /  1019.3hPa WSW 4.9mph /  7.9km/h 5mph /  8km/h 95% 0in /  0.0mm 0 W/m2
17:23 47.5 °F /  8.6 °C 46 °F /  7.8 °C 30.1in /  1019.6hPa West 2.9mph /  4.7km/h 6mph /  9.7km/h 95% 0in /  0.0mm 0 W/m2
17:28 47.5 °F /  8.6 °C 46 °F /  7.8 °C 30.1in /  1019.6hPa WSW 2.9mph /  4.7km/h 6mph /  9.7km/h 95% 0in /  0.0mm 0 W/m2
17:33 47.5 °F /  8.6 °C 46 °F /  7.8 °C 30.1in /  1019.6hPa WNW 2.9mph /  4.7km/h 7mph /  11.3km/h 95% 0in /  0.0mm 0 W/m2
17:38 47.5 °F /  8.6 °C 46 °F /  7.8 °C 30.1in /  1019.6hPa WSW 2mph /  3.2km/h 4mph /  6.4km/h 95% 0in /  0.0mm 0 W/m2
17:43 47.5 °F /  8.6 °C 46 °F /  7.8 °C 30.1in /  1019.6hPa SW 6mph /  9.7km/h 8mph /  12.9km/h 95% 0in /  0.0mm 0 W/m2
17:48 47.3 °F /  8.5 °C 45.9 °F /  7.7 °C 30.1in /  1019.6hPa West 2mph /  3.2km/h 4mph /  6.4km/h 95% 0in /  0.0mm 0 W/m2
17:53 47.1 °F /  8.4 °C 45.7 °F /  7.6 °C 30.1in /  1019.6hPa West 2.9mph /  4.7km/h 7mph /  11.3km/h 95% 0in /  0.0mm 0 W/m2
17:58 47.1 °F /  8.4 °C 45.7 °F /  7.6 °C 30.1in /  1019.6hPa West 2.9mph /  4.7km/h 7mph /  11.3km/h 95% 0in /  0.0mm 0 W/m2
18:03 47.1 °F /  8.4 °C 45.7 °F /  7.6 °C 30.1in /  1019.6hPa West 2.9mph /  4.7km/h 8mph /  12.9km/h 95% 0in /  0.0mm 0 W/m2
18:08 47.1 °F /  8.4 °C 45.7 °F /  7.6 °C 30.1in /  1019.6hPa West 2.9mph /  4.7km/h 7mph /  11.3km/h 95% 0in /  0.0mm 0 W/m2
18:13 47.1 °F /  8.4 °C 45.7 °F /  7.6 °C 30.1in /  1019.6hPa West 2.9mph /  4.7km/h 8mph /  12.9km/h 95% 0in /  0.0mm 0 W/m2
18:18 46.9 °F /  8.3 °C 45.5 °F /  7.5 °C 30.1in /  1019.6hPa WNW 6.9mph /  11.1km/h 8mph /  12.9km/h 95% 0in /  0.0mm 0 W/m2
18:23 46.9 °F /  8.3 °C 45.5 °F /  7.5 °C 30.1in /  1019.6hPa West 2mph /  3.2km/h 7mph /  11.3km/h 95% 0in /  0.0mm 0 W/m2
18:28 46.9 °F /  8.3 °C 45.3 °F /  7.4 °C 30.1in /  1019.6hPa WNW 2mph /  3.2km/h 8mph /  12.9km/h 94% 0in /  0.0mm 0 W/m2
18:33 46.8 °F /  8.2 °C 45.1 °F /  7.3 °C 30.1in /  1019.6hPa WSW 2.9mph /  4.7km/h 9mph /  14.5km/h 94% 0in /  0.0mm 0 W/m2
18:38 46.8 °F /  8.2 °C 44.8 °F /  7.1 °C 30.1in /  1019.6hPa WNW 4mph /  6.4km/h 7mph /  11.3km/h 93% 0in /  0.0mm 0 W/m2
18:43 46.8 °F /  8.2 °C 44.8 °F /  7.1 °C 30.1in /  1019.6hPa West 10.1mph /  16.3km/h 11mph /  17.7km/h 93% 0in /  0.0mm 0 W/m2
18:48 46.8 °F /  8.2 °C 44.6 °F /  7 °C 30.1in /  1020.0hPa WNW 4.9mph /  7.9km/h 9mph /  14.5km/h 92% 0in /  0.0mm 0 W/m2
18:53 46.6 °F /  8.1 °C 44.1 °F /  6.7 °C 30.1in /  1020.0hPa SW 4mph /  6.4km/h 7mph /  11.3km/h 91% 0in /  0.0mm 0 W/m2
18:58 46.2 °F /  7.9 °C 43.7 °F /  6.5 °C 30.1in /  1020.0hPa West 4mph /  6.4km/h 6mph /  9.7km/h 91% 0in /  0.0mm 0 W/m2
19:03 46.2 °F /  7.9 °C 43.7 °F /  6.5 °C 30.1in /  1020.0hPa West 2.9mph /  4.7km/h 10mph /  16.1km/h 91% 0in /  0.0mm 0 W/m2
19:08 46 °F /  7.8 °C 43.3 °F /  6.3 °C 30.1in /  1019.6hPa West 2.9mph /  4.7km/h 8mph /  12.9km/h 90% 0in /  0.0mm 0 W/m2
19:13 45.9 °F /  7.7 °C 43.3 °F /  6.3 °C 30.1in /  1020.0hPa WSW 4mph /  6.4km/h 10mph /  16.1km/h 91% 0in /  0.0mm 0 W/m2
19:18 45.9 °F /  7.7 °C 43.3 °F /  6.3 °C 30.1in /  1020.0hPa West 4mph /  6.4km/h 10mph /  16.1km/h 91% 0in /  0.0mm 0 W/m2
19:23 45.7 °F /  7.6 °C 43.2 °F /  6.2 °C 30.1in /  1020.3hPa WNW 4mph /  6.4km/h 7mph /  11.3km/h 91% 0in /  0.0mm 0 W/m2
19:28 45.5 °F /  7.5 °C 43 °F /  6.1 °C 30.1in /  1020.3hPa West 2.9mph /  4.7km/h 10mph /  16.1km/h 91% 0in /  0.0mm 0 W/m2
19:33 45.3 °F /  7.4 °C 42.8 °F /  6 °C 30.1in /  1020.3hPa West 4mph /  6.4km/h 7mph /  11.3km/h 91% 0in /  0.0mm 0 W/m2
19:38 45.1 °F /  7.3 °C 42.6 °F /  5.9 °C 30.1in /  1020.3hPa West 2.9mph /  4.7km/h 9mph /  14.5km/h 91% 0in /  0.0mm 0 W/m2
19:43 45 °F /  7.2 °C 42.4 °F /  5.8 °C 30.1in /  1020.3hPa West 4mph /  6.4km/h 5mph /  8km/h 91% 0in /  0.0mm 0 W/m2
19:48 45 °F /  7.2 °C 42.4 °F /  5.8 °C 30.1in /  1020.3hPa WNW 2.9mph /  4.7km/h 7mph /  11.3km/h 91% 0in /  0.0mm 0 W/m2
19:53 45 °F /  7.2 °C 42.4 °F /  5.8 °C 30.1in /  1020.7hPa WSW 4mph /  6.4km/h 5mph /  8km/h 91% 0in /  0.0mm 0 W/m2
19:58 44.8 °F /  7.1 °C 42.3 °F /  5.7 °C 30.1in /  1020.7hPa WNW 2mph /  3.2km/h 4mph /  6.4km/h 91% 0in /  0.0mm 0 W/m2
20:03 44.6 °F /  7 °C 42.1 °F /  5.6 °C 30.1in /  1020.7hPa WNW 2mph /  3.2km/h 4mph /  6.4km/h 91% 0in /  0.0mm 0 W/m2
20:08 44.4 °F /  6.9 °C 41.9 °F /  5.5 °C 30.1in /  1020.7hPa West 2mph /  3.2km/h 5mph /  8km/h 91% 0in /  0.0mm 0 W/m2
20:13 44.2 °F /  6.8 °C 41.7 °F /  5.4 °C 30.1in /  1020.7hPa WNW 2.9mph /  4.7km/h 6mph /  9.7km/h 91% 0in /  0.0mm 0 W/m2
20:18 44.2 °F /  6.8 °C 41.7 °F /  5.4 °C 30.1in /  1020.3hPa WSW 2.9mph /  4.7km/h 6mph /  9.7km/h 91% 0in /  0.0mm 0 W/m2
20:23 44.2 °F /  6.8 °C 41.7 °F /  5.4 °C 30.1in /  1020.3hPa West 2mph /  3.2km/h 7mph /  11.3km/h 91% 0in /  0.0mm 0 W/m2
20:28 44.2 °F /  6.8 °C 41.7 °F /  5.4 °C 30.1in /  1020.3hPa West 4mph /  6.4km/h 7mph /  11.3km/h 91% 0in /  0.0mm 0 W/m2
20:33 44.2 °F /  6.8 °C 41.7 °F /  5.4 °C 30.1in /  1020.7hPa West 2.9mph /  4.7km/h 7mph /  11.3km/h 91% 0in /  0.0mm 0 W/m2
20:38 44.2 °F /  6.8 °C 41.7 °F /  5.4 °C 30.1in /  1020.7hPa West 2.9mph /  4.7km/h 7mph /  11.3km/h 91% 0in /  0.0mm 0 W/m2
20:43 44.1 °F /  6.7 °C 41.5 °F /  5.3 °C 30.1in /  1020.7hPa West 4mph /  6.4km/h 8mph /  12.9km/h 91% 0in /  0.0mm 0 W/m2
20:48 44.1 °F /  6.7 °C 41.5 °F /  5.3 °C 30.1in /  1020.7hPa West 2.9mph /  4.7km/h 6mph /  9.7km/h 91% 0in /  0.0mm 0 W/m2
20:53 43.9 °F /  6.6 °C 41.4 °F /  5.2 °C 30.1in /  1020.7hPa WNW 4mph /  6.4km/h 8mph /  12.9km/h 91% 0in /  0.0mm 0 W/m2
20:58 44.1 °F /  6.7 °C 41.5 °F /  5.3 °C 30.1in /  1020.7hPa WNW 2.9mph /  4.7km/h 6mph /  9.7km/h 91% 0in /  0.0mm 0 W/m2
21:03 44.1 °F /  6.7 °C 41.5 °F /  5.3 °C 30.1in /  1020.7hPa West 4mph /  6.4km/h 6mph /  9.7km/h 91% 0in /  0.0mm 0 W/m2
21:08 44.2 °F /  6.8 °C 41.7 °F /  5.4 °C 30.1in /  1020.7hPa West 2.9mph /  4.7km/h 8mph /  12.9km/h 91% 0in /  0.0mm 0 W/m2
21:13 44.2 °F /  6.8 °C 41.5 °F /  5.3 °C 30.1in /  1020.7hPa WNW 2mph /  3.2km/h 6mph /  9.7km/h 90% 0in /  0.0mm 0 W/m2
21:18 44.2 °F /  6.8 °C 41.5 °F /  5.3 °C 30.1in /  1020.7hPa WNW 2mph /  3.2km/h 8mph /  12.9km/h 90% 0in /  0.0mm 0 W/m2
21:23 44.1 °F /  6.7 °C 41.4 °F /  5.2 °C 30.1in /  1020.7hPa NW 2.9mph /  4.7km/h 3mph /  4.8km/h 90% 0in /  0.0mm 0 W/m2
21:28 43.5 °F /  6.4 °C 40.8 °F /  4.9 °C 30.1in /  1020.7hPa WSW 4mph /  6.4km/h 7mph /  11.3km/h 90% 0in /  0.0mm 0 W/m2
21:33 43.5 °F /  6.4 °C 41 °F /  5 °C 30.2in /  1021.0hPa WNW 2.9mph /  4.7km/h 6mph /  9.7km/h 91% 0in /  0.0mm 0 W/m2
21:38 43.5 °F /  6.4 °C 41 °F /  5 °C 30.2in /  1021.0hPa West 2.9mph /  4.7km/h 7mph /  11.3km/h 91% 0in /  0.0mm 0 W/m2
21:43 43.7 °F /  6.5 °C 41.2 °F /  5.1 °C 30.2in /  1021.0hPa West 4mph /  6.4km/h 7mph /  11.3km/h 91% 0in /  0.0mm 0 W/m2
21:48 44.1 °F /  6.7 °C 41.5 °F /  5.3 °C 30.1in /  1020.7hPa West 6mph /  9.7km/h 8mph /  12.9km/h 91% 0in /  0.0mm 0 W/m2
21:54 44.4 °F /  6.9 °C 41.7 °F /  5.4 °C 30.1in /  1020.7hPa WNW 4mph /  6.4km/h 6mph /  9.7km/h 90% 0in /  0.0mm 0 W/m2
21:59 44.4 °F /  6.9 °C 41.4 °F /  5.2 °C 30.1in /  1020.7hPa West 4mph /  6.4km/h 9mph /  14.5km/h 89% 0in /  0.0mm 0 W/m2
22:04 44.4 °F /  6.9 °C 41.4 °F /  5.2 °C 30.1in /  1020.7hPa WNW 2.9mph /  4.7km/h 6mph /  9.7km/h 89% 0in /  0.0mm 0 W/m2
22:09 44.4 °F /  6.9 °C 41.4 °F /  5.2 °C 30.2in /  1021.0hPa WNW 2.9mph /  4.7km/h 9mph /  14.5km/h 89% 0in /  0.0mm 0 W/m2
22:14 44.1 °F /  6.7 °C 41 °F /  5 °C 30.2in /  1021.0hPa WNW 6mph /  9.7km/h 7mph /  11.3km/h 89% 0in /  0.0mm 0 W/m2
22:19 43.9 °F /  6.6 °C 41.2 °F /  5.1 °C 30.2in /  1021.0hPa West 6mph /  9.7km/h 7mph /  11.3km/h 90% 0in /  0.0mm 0 W/m2
22:24 44.2 °F /  6.8 °C 41.5 °F /  5.3 °C 30.2in /  1021.0hPa West 2.9mph /  4.7km/h 9mph /  14.5km/h 90% 0in /  0.0mm 0 W/m2
22:29 44.2 °F /  6.8 °C 41.2 °F /  5.1 °C 30.2in /  1021.0hPa West 6mph /  9.7km/h 8mph /  12.9km/h 89% 0in /  0.0mm 0 W/m2
22:34 44.4 °F /  6.9 °C 41.4 °F /  5.2 °C 30.2in /  1021.0hPa WNW 4.9mph /  7.9km/h 11mph /  17.7km/h 89% 0in /  0.0mm 0 W/m2
22:39 44.4 °F /  6.9 °C 41.2 °F /  5.1 °C 30.2in /  1021.0hPa WNW 2.9mph /  4.7km/h 7mph /  11.3km/h 88% 0in /  0.0mm 0 W/m2
22:44 44.1 °F /  6.7 °C 41 °F /  5 °C 30.2in /  1021.3hPa West 8.1mph /  13km/h 8mph /  12.9km/h 89% 0in /  0.0mm 0 W/m2
22:49 44.1 °F /  6.7 °C 41 °F /  5 °C 30.2in /  1021.0hPa WSW 2mph /  3.2km/h 7mph /  11.3km/h 89% 0in /  0.0mm 0 W/m2
22:54 44.1 °F /  6.7 °C 41 °F /  5 °C 30.2in /  1021.3hPa West 6mph /  9.7km/h 7mph /  11.3km/h 89% 0in /  0.0mm 0 W/m2
22:59 43.9 °F /  6.6 °C 40.8 °F /  4.9 °C 30.2in /  1021.0hPa WNW 4.9mph /  7.9km/h 7mph /  11.3km/h 89% 0in /  0.0mm 0 W/m2
23:04 43.7 °F /  6.5 °C 40.6 °F /  4.8 °C 30.2in /  1021.0hPa WNW 2.9mph /  4.7km/h 6mph /  9.7km/h 89% 0in /  0.0mm 0 W/m2
23:09 43.7 °F /  6.5 °C 40.6 °F /  4.8 °C 30.2in /  1021.0hPa WNW 4mph /  6.4km/h 10mph /  16.1km/h 89% 0in /  0.0mm 0 W/m2
23:14 43.9 °F /  6.6 °C 40.8 °F /  4.9 °C 30.2in /  1021.0hPa NNW 2.9mph /  4.7km/h 6mph /  9.7km/h 89% 0in /  0.0mm 0 W/m2
23:19 44.1 °F /  6.7 °C 40.8 °F /  4.9 °C 30.2in /  1021.0hPa WNW 4mph /  6.4km/h 10mph /  16.1km/h 88% 0in /  0.0mm 0 W/m2
23:24 44.2 °F /  6.8 °C 41 °F /  5 °C 30.2in /  1021.0hPa West 4mph /  6.4km/h 8mph /  12.9km/h 88% 0in /  0.0mm 0 W/m2
23:29 44.2 °F /  6.8 °C 41 °F /  5 °C 30.2in /  1021.0hPa West 8.1mph /  13km/h 10mph /  16.1km/h 88% 0in /  0.0mm 0 W/m2
23:34 44.1 °F /  6.7 °C 40.5 °F /  4.7 °C 30.2in /  1021.0hPa NW 2mph /  3.2km/h 4mph /  6.4km/h 87% 0in /  0.0mm 0 W/m2
23:39 43.5 °F /  6.4 °C 40.3 °F /  4.6 °C 30.2in /  1021.0hPa WNW 4mph /  6.4km/h 7mph /  11.3km/h 88% 0in /  0.0mm 0 W/m2
23:44 43.2 °F /  6.2 °C 39.9 °F /  4.4 °C 30.2in /  1021.3hPa Calm   3mph /  4.8km/h 88% 0in /  0.0mm 0 W/m2
23:49 43 °F /  6.1 °C 39.9 °F /  4.4 °C 30.2in /  1021.3hPa West 2.9mph /  4.7km/h 4mph /  6.4km/h 89% 0in /  0.0mm 0 W/m2
23:54 42.8 °F /  6 °C 40.1 °F /  4.5 °C 30.2in /  1021.3hPa North 0.9mph /  1.4km/h 2mph /  3.2km/h 90% 0in /  0.0mm 0 W/m2
23:59 42.4 °F /  5.8 °C 39.4 °F /  4.1 °C 30.2in /  1021.3hPa ESE 2mph /  3.2km/h 3mph /  4.8km/h 89% 0in /  0.0mm 0 W/m2
Juneau County Weather
Compliments of Weather Underground - 4 mb